Current Weather

Chandler Muni

Chandler, Arizona (KCHD)

Report from: Monday, August 15, 2022 4:47 PM MST
Current time: Monday, August 15, 2022 5:56 PM MST

Nearby weather
Weather history
Weather forecast

Temperature37.0°C (98.6°F)
Heat index38.7°C (101.6°F)
Dew point18.0°C (64.4°F)
Winds 5 kts (2.6 m/s, 5.8 mph) Southwest (230°)
Visibility10 mi. (16.1 km)
Clouds Sky clear
Altimeter29.76 in.Hg (1008 mB)
Relative humidity33 %
Density altitude2,951 ft. (899 m)
Flight conditions Visual Meteorological Conditions
Raw dataKCHD 152347Z 23005KT 10SM CLR 37/18 A2976
An error has occurred. This application may no longer respond until reloaded. Reload 🗙